sensor_id;sensor_type;location;lat;lon;timestamp;P1;durP1;ratioP1;P2;durP2;ratioP2
13687;SDS011;6916;51.504;7.416;2023-07-02T00:02:40;6.25;;;2.83;;
13687;SDS011;6916;51.504;7.416;2023-07-02T00:12:43;2.55;;;2.35;;
13687;SDS011;6916;51.504;7.416;2023-07-02T00:22:46;5.40;;;2.30;;
13687;SDS011;6916;51.504;7.416;2023-07-02T00:32:49;3.70;;;2.45;;
13687;SDS011;6916;51.504;7.416;2023-07-02T00:42:51;5.03;;;2.58;;
13687;SDS011;6916;51.504;7.416;2023-07-02T00:52:54;5.40;;;2.72;;
13687;SDS011;6916;51.504;7.416;2023-07-02T01:02:57;3.85;;;2.85;;
13687;SDS011;6916;51.504;7.416;2023-07-02T01:13:04;4.60;;;2.58;;
13687;SDS011;6916;51.504;7.416;2023-07-02T01:23:14;5.35;;;2.90;;
13687;SDS011;6916;51.504;7.416;2023-07-02T01:33:17;4.70;;;2.50;;
13687;SDS011;6916;51.504;7.416;2023-07-02T01:43:20;4.43;;;3.00;;
13687;SDS011;6916;51.504;7.416;2023-07-02T01:53:22;4.97;;;2.95;;
13687;SDS011;6916;51.504;7.416;2023-07-02T02:03:25;6.07;;;3.53;;
13687;SDS011;6916;51.504;7.416;2023-07-02T02:13:27;5.85;;;2.80;;
13687;SDS011;6916;51.504;7.416;2023-07-02T02:23:30;5.85;;;3.40;;
13687;SDS011;6916;51.504;7.416;2023-07-02T02:33:34;5.93;;;3.00;;
13687;SDS011;6916;51.504;7.416;2023-07-02T02:43:42;10.07;;;4.25;;
13687;SDS011;6916;51.504;7.416;2023-07-02T02:53:47;10.07;;;5.03;;
13687;SDS011;6916;51.504;7.416;2023-07-02T03:03:49;10.98;;;6.00;;
13687;SDS011;6916;51.504;7.416;2023-07-02T03:13:52;10.60;;;5.38;;
13687;SDS011;6916;51.504;7.416;2023-07-02T03:23:55;12.77;;;6.43;;
13687;SDS011;6916;51.504;7.416;2023-07-02T03:33:57;13.27;;;7.20;;
13687;SDS011;6916;51.504;7.416;2023-07-02T03:44:00;15.33;;;7.70;;
13687;SDS011;6916;51.504;7.416;2023-07-02T03:54:02;16.58;;;7.75;;
13687;SDS011;6916;51.504;7.416;2023-07-02T04:04:05;14.20;;;7.90;;
13687;SDS011;6916;51.504;7.416;2023-07-02T04:14:08;16.70;;;9.20;;
13687;SDS011;6916;51.504;7.416;2023-07-02T04:24:10;15.70;;;8.83;;
13687;SDS011;6916;51.504;7.416;2023-07-02T04:34:14;19.15;;;9.40;;
13687;SDS011;6916;51.504;7.416;2023-07-02T04:44:16;16.27;;;9.47;;
13687;SDS011;6916;51.504;7.416;2023-07-02T04:54:19;22.00;;;10.15;;
13687;SDS011;6916;51.504;7.416;2023-07-02T05:04:23;17.58;;;9.98;;
13687;SDS011;6916;51.504;7.416;2023-07-02T05:14:25;19.47;;;10.87;;
13687;SDS011;6916;51.504;7.416;2023-07-02T05:24:27;19.75;;;11.43;;
13687;SDS011;6916;51.504;7.416;2023-07-02T05:34:30;17.83;;;10.13;;
13687;SDS011;6916;51.504;7.416;2023-07-02T05:44:33;25.30;;;12.07;;
13687;SDS011;6916;51.504;7.416;2023-07-02T05:54:38;21.23;;;12.00;;
13687;SDS011;6916;51.504;7.416;2023-07-02T06:04:42;20.57;;;11.93;;
13687;SDS011;6916;51.504;7.416;2023-07-02T06:14:44;24.92;;;12.32;;
13687;SDS011;6916;51.504;7.416;2023-07-02T06:24:47;23.50;;;11.88;;
13687;SDS011;6916;51.504;7.416;2023-07-02T06:34:49;25.10;;;13.55;;
13687;SDS011;6916;51.504;7.416;2023-07-02T06:44:52;22.48;;;12.43;;
13687;SDS011;6916;51.504;7.416;2023-07-02T06:54:55;24.88;;;12.45;;
13687;SDS011;6916;51.504;7.416;2023-07-02T07:04:57;27.50;;;11.63;;
13687;SDS011;6916;51.504;7.416;2023-07-02T07:15:00;22.02;;;11.88;;
13687;SDS011;6916;51.504;7.416;2023-07-02T07:25:02;15.75;;;8.57;;
13687;SDS011;6916;51.504;7.416;2023-07-02T07:35:05;21.90;;;8.98;;
13687;SDS011;6916;51.504;7.416;2023-07-02T07:45:09;13.57;;;8.73;;
13687;SDS011;6916;51.504;7.416;2023-07-02T07:55:12;20.48;;;8.52;;
13687;SDS011;6916;51.504;7.416;2023-07-02T08:05:15;21.35;;;9.18;;
13687;SDS011;6916;51.504;7.416;2023-07-02T08:15:18;15.52;;;8.98;;
13687;SDS011;6916;51.504;7.416;2023-07-02T08:25:21;15.77;;;7.82;;
13687;SDS011;6916;51.504;7.416;2023-07-02T08:35:24;16.80;;;8.98;;
13687;SDS011;6916;51.504;7.416;2023-07-02T08:45:26;17.13;;;8.52;;
13687;SDS011;6916;51.504;7.416;2023-07-02T08:55:29;19.55;;;8.00;;
13687;SDS011;6916;51.504;7.416;2023-07-02T09:05:31;19.75;;;8.18;;
13687;SDS011;6916;51.504;7.416;2023-07-02T09:15:37;19.13;;;7.80;;
13687;SDS011;6916;51.504;7.416;2023-07-02T09:25:41;13.60;;;6.68;;
13687;SDS011;6916;51.504;7.416;2023-07-02T09:35:44;14.07;;;6.47;;
13687;SDS011;6916;51.504;7.416;2023-07-02T09:45:47;12.20;;;5.85;;
13687;SDS011;6916;51.504;7.416;2023-07-02T09:55:50;12.30;;;6.18;;
13687;SDS011;6916;51.504;7.416;2023-07-02T10:06:01;15.73;;;5.85;;
13687;SDS011;6916;51.504;7.416;2023-07-02T10:16:06;11.50;;;5.90;;
13687;SDS011;6916;51.504;7.416;2023-07-02T10:26:09;16.95;;;7.00;;
13687;SDS011;6916;51.504;7.416;2023-07-02T10:36:23;12.77;;;6.22;;
13687;SDS011;6916;51.504;7.416;2023-07-02T10:46:26;14.75;;;7.50;;
13687;SDS011;6916;51.504;7.416;2023-07-02T10:56:29;11.90;;;6.00;;
13687;SDS011;6916;51.504;7.416;2023-07-02T11:06:32;12.70;;;5.97;;
13687;SDS011;6916;51.504;7.416;2023-07-02T11:16:35;13.30;;;5.70;;
13687;SDS011;6916;51.504;7.416;2023-07-02T11:26:40;13.25;;;6.47;;
13687;SDS011;6916;51.504;7.416;2023-07-02T11:36:43;14.00;;;6.70;;
13687;SDS011;6916;51.504;7.416;2023-07-02T11:46:47;12.40;;;5.65;;
13687;SDS011;6916;51.504;7.416;2023-07-02T11:56:51;12.00;;;5.60;;
13687;SDS011;6916;51.504;7.416;2023-07-02T12:06:53;12.30;;;6.60;;
13687;SDS011;6916;51.504;7.416;2023-07-02T12:16:59;11.30;;;5.85;;
13687;SDS011;6916;51.504;7.416;2023-07-02T12:27:06;13.55;;;5.88;;
13687;SDS011;6916;51.504;7.416;2023-07-02T12:37:12;10.82;;;5.50;;
13687;SDS011;6916;51.504;7.416;2023-07-02T12:47:25;12.82;;;5.63;;
13687;SDS011;6916;51.504;7.416;2023-07-02T12:57:34;10.73;;;5.13;;
13687;SDS011;6916;51.504;7.416;2023-07-02T13:07:41;12.43;;;5.47;;
13687;SDS011;6916;51.504;7.416;2023-07-02T13:17:46;11.55;;;5.38;;
13687;SDS011;6916;51.504;7.416;2023-07-02T13:27:53;12.07;;;5.45;;
13687;SDS011;6916;51.504;7.416;2023-07-02T13:37:56;13.50;;;5.57;;
13687;SDS011;6916;51.504;7.416;2023-07-02T13:48:05;12.50;;;5.93;;
13687;SDS011;6916;51.504;7.416;2023-07-02T13:58:09;13.73;;;5.90;;
13687;SDS011;6916;51.504;7.416;2023-07-02T14:08:11;16.08;;;6.72;;
13687;SDS011;6916;51.504;7.416;2023-07-02T14:18:14;9.20;;;5.57;;
13687;SDS011;6916;51.504;7.416;2023-07-02T14:28:16;15.30;;;7.30;;
13687;SDS011;6916;51.504;7.416;2023-07-02T14:38:20;11.43;;;6.72;;
13687;SDS011;6916;51.504;7.416;2023-07-02T14:48:24;14.55;;;7.00;;
13687;SDS011;6916;51.504;7.416;2023-07-02T14:58:27;12.70;;;7.55;;
13687;SDS011;6916;51.504;7.416;2023-07-02T15:08:30;14.32;;;7.65;;
13687;SDS011;6916;51.504;7.416;2023-07-02T15:18:33;16.15;;;7.18;;
13687;SDS011;6916;51.504;7.416;2023-07-02T15:28:36;12.40;;;6.68;;
13687;SDS011;6916;51.504;7.416;2023-07-02T15:38:38;16.40;;;6.28;;
13687;SDS011;6916;51.504;7.416;2023-07-02T15:48:41;16.48;;;7.45;;
13687;SDS011;6916;51.504;7.416;2023-07-02T15:58:44;13.55;;;7.18;;
13687;SDS011;6916;51.504;7.416;2023-07-02T16:08:46;13.88;;;6.82;;
13687;SDS011;6916;51.504;7.416;2023-07-02T16:18:49;10.98;;;7.00;;
13687;SDS011;6916;51.504;7.416;2023-07-02T16:28:53;15.07;;;7.38;;
13687;SDS011;6916;51.504;7.416;2023-07-02T16:38:56;13.65;;;6.75;;
13687;SDS011;6916;51.504;7.416;2023-07-02T16:49:01;14.52;;;6.97;;
13687;SDS011;6916;51.504;7.416;2023-07-02T16:59:03;13.32;;;7.05;;
13687;SDS011;6916;51.504;7.416;2023-07-02T17:09:25;13.77;;;6.47;;
13687;SDS011;6916;51.504;7.416;2023-07-02T17:19:35;13.70;;;6.57;;
13687;SDS011;6916;51.504;7.416;2023-07-02T17:29:40;13.43;;;6.78;;
13687;SDS011;6916;51.504;7.416;2023-07-02T17:39:44;15.85;;;6.45;;
13687;SDS011;6916;51.504;7.416;2023-07-02T17:49:47;11.38;;;6.63;;
13687;SDS011;6916;51.504;7.416;2023-07-02T17:59:51;9.20;;;6.07;;
13687;SDS011;6916;51.504;7.416;2023-07-02T18:09:58;14.65;;;6.65;;
13687;SDS011;6916;51.504;7.416;2023-07-02T18:20:01;11.60;;;6.10;;
13687;SDS011;6916;51.504;7.416;2023-07-02T18:30:04;15.80;;;5.95;;
13687;SDS011;6916;51.504;7.416;2023-07-02T18:40:07;13.02;;;7.10;;
13687;SDS011;6916;51.504;7.416;2023-07-02T18:50:11;11.48;;;6.90;;
13687;SDS011;6916;51.504;7.416;2023-07-02T19:00:18;15.82;;;7.15;;
13687;SDS011;6916;51.504;7.416;2023-07-02T19:10:21;12.45;;;6.53;;
13687;SDS011;6916;51.504;7.416;2023-07-02T19:20:25;10.30;;;6.47;;
13687;SDS011;6916;51.504;7.416;2023-07-02T19:30:30;9.57;;;3.88;;
13687;SDS011;6916;51.504;7.416;2023-07-02T19:40:34;7.45;;;4.25;;
13687;SDS011;6916;51.504;7.416;2023-07-02T19:50:37;8.95;;;3.67;;
13687;SDS011;6916;51.504;7.416;2023-07-02T20:00:41;7.20;;;3.13;;
13687;SDS011;6916;51.504;7.416;2023-07-02T20:10:44;6.38;;;3.05;;
13687;SDS011;6916;51.504;7.416;2023-07-02T20:20:47;9.23;;;3.75;;
13687;SDS011;6916;51.504;7.416;2023-07-02T20:30:52;5.35;;;3.03;;
13687;SDS011;6916;51.504;7.416;2023-07-02T20:40:58;8.18;;;3.90;;
13687;SDS011;6916;51.504;7.416;2023-07-02T20:51:06;9.10;;;3.60;;
13687;SDS011;6916;51.504;7.416;2023-07-02T21:01:12;6.10;;;3.15;;
13687;SDS011;6916;51.504;7.416;2023-07-02T21:11:15;7.18;;;4.15;;
13687;SDS011;6916;51.504;7.416;2023-07-02T21:21:36;8.13;;;3.97;;
13687;SDS011;6916;51.504;7.416;2023-07-02T21:31:38;7.10;;;3.65;;
13687;SDS011;6916;51.504;7.416;2023-07-02T21:41:41;11.68;;;4.10;;
13687;SDS011;6916;51.504;7.416;2023-07-02T21:51:44;8.10;;;3.65;;
13687;SDS011;6916;51.504;7.416;2023-07-02T22:01:46;8.15;;;3.60;;
13687;SDS011;6916;51.504;7.416;2023-07-02T22:11:49;12.00;;;4.22;;
13687;SDS011;6916;51.504;7.416;2023-07-02T22:21:52;8.60;;;3.78;;
13687;SDS011;6916;51.504;7.416;2023-07-02T22:31:56;10.77;;;4.25;;
13687;SDS011;6916;51.504;7.416;2023-07-02T22:41:58;9.95;;;4.03;;
13687;SDS011;6916;51.504;7.416;2023-07-02T22:52:01;8.73;;;3.78;;
13687;SDS011;6916;51.504;7.416;2023-07-02T23:02:04;8.52;;;4.68;;
13687;SDS011;6916;51.504;7.416;2023-07-02T23:12:07;10.00;;;4.15;;
13687;SDS011;6916;51.504;7.416;2023-07-02T23:22:11;11.40;;;4.57;;
13687;SDS011;6916;51.504;7.416;2023-07-02T23:32:15;8.03;;;4.50;;
13687;SDS011;6916;51.504;7.416;2023-07-02T23:42:29;9.82;;;3.72;;
13687;SDS011;6916;51.504;7.416;2023-07-02T23:52:31;13.93;;;2.95;;
